Time;durP1;ratioP1;P1;durP2;ratioP2;P2;SDS_P1;SDS_P2;PMS_P1;PMS_P2;Temp;Humidity;BMP_temperature;BMP_pressure;BME280_temperature;BME280_humidity;BME280_pressure;Samples;Min_cycle;Max_cycle;Signal;HPM_P1;HPM_P2
2022/06/19 00:00:09;;;;;;;9.80;5.70;;;;;;;25.09;48.16;157824.41;5045462;28;20974;-81
2022/06/19 00:02:40;;;;;;;12.17;5.60;;;;;;;25.12;48.11;157832.28;5049451;28;20485;-81
2022/06/19 00:05:08;;;;;;;10.23;5.27;;;;;;;25.13;48.01;157834.84;5049373;28;20467;-81
2022/06/19 00:07:36;;;;;;;12.97;5.00;;;;;;;25.05;47.91;157813.91;5050499;28;20441;-81
2022/06/19 00:10:04;;;;;;;8.10;4.67;;;;;;;25.03;48.31;157808.69;5058879;28;20458;-81
2022/06/19 00:12:31;;;;;;;8.43;4.50;;;;;;;25.00;48.50;157800.84;5049181;28;20483;-82
2022/06/19 00:14:58;;;;;;;9.27;4.87;;;;;;;24.97;48.84;157793.00;5051586;28;20431;-81
2022/06/19 00:17:24;;;;;;;7.70;5.30;;;;;;;24.92;48.55;157779.91;5051046;28;20481;-81
2022/06/19 00:19:51;;;;;;;10.30;4.90;;;;;;;24.90;48.95;157774.69;5051889;28;20556;-81
2022/06/19 00:22:18;;;;;;;11.77;4.97;;;;;;;24.89;48.82;157772.03;5052030;28;20492;-81
2022/06/19 00:24:48;;;;;;;7.30;4.50;;;;;;;24.89;48.59;157770.78;5050221;28;20499;-81
2022/06/19 00:27:15;;;;;;;6.97;4.60;;;;;;;24.87;48.43;157766.84;5043217;28;20466;-81
2022/06/19 00:29:41;;;;;;;7.53;4.67;;;;;;;24.83;48.76;157757.66;5050296;28;20461;-81
2022/06/19 00:32:09;;;;;;;7.10;5.03;;;;;;;24.89;48.53;157772.03;5046910;28;20513;-81
2022/06/19 00:34:36;;;;;;;10.10;4.70;;;;;;;24.86;48.66;157762.94;5051820;28;20485;-81
2022/06/19 00:37:04;;;;;;;14.83;5.17;;;;;;;24.86;48.06;157764.19;5049332;28;20951;-81
2022/06/19 00:39:32;;;;;;;6.70;4.47;;;;;;;24.86;48.37;157764.19;5048523;28;20446;-81
2022/06/19 00:42:00;;;;;;;11.70;4.47;;;;;;;24.88;48.05;157769.47;5049392;28;20525;-81
2022/06/19 00:44:27;;;;;;;7.80;5.10;;;;;;;24.86;48.36;157764.19;5049962;28;20485;-81
2022/06/19 00:46:59;;;;;;;7.20;4.40;;;;;;;24.83;48.17;157756.38;5051263;28;20438;-81
2022/06/19 00:49:29;;;;;;;7.40;5.03;;;;;;;24.79;48.20;157745.88;5046997;28;20446;-81
2022/06/19 00:52:04;;;;;;;8.77;4.70;;;;;;;24.73;48.65;157730.13;5051084;28;20454;-81
2022/06/19 00:54:35;;;;;;;11.00;5.10;;;;;;;24.68;48.93;157717.06;5048492;28;20492;-81
2022/06/19 00:57:04;;;;;;;9.50;5.00;;;;;;;24.66;48.85;157711.84;5048163;28;21022;-81
2022/06/19 00:59:31;;;;;;;5.87;4.50;;;;;;;24.63;48.95;157703.97;5046599;28;20523;-81
2022/06/19 01:01:58;;;;;;;9.50;4.77;;;;;;;24.57;49.37;157689.59;5030409;28;20717;-81
2022/06/19 01:04:31;;;;;;;10.50;4.90;;;;;;;24.55;49.26;157683.03;5046360;28;20933;-81
2022/06/19 01:06:57;;;;;;;12.10;5.50;;;;;;;24.53;49.01;157679.16;5048327;28;20455;-81
2022/06/19 01:09:24;;;;;;;10.30;5.27;;;;;;;24.48;49.25;157664.75;5050528;28;20850;-81
2022/06/19 01:11:51;;;;;;;7.73;5.20;;;;;;;24.44;49.20;157654.25;5050194;28;20504;-81
2022/06/19 01:14:22;;;;;;;9.10;4.60;;;;;;;24.42;49.00;157649.03;5050258;28;20450;-81
2022/06/19 01:16:48;;;;;;;8.43;4.90;;;;;;;24.40;49.28;157643.81;5045129;28;20889;-81
2022/06/19 01:19:25;;;;;;;7.83;4.77;;;;;;;24.36;49.57;157633.38;5049098;28;20458;-81
2022/06/19 01:21:59;;;;;;;9.97;4.50;;;;;;;24.31;49.29;157620.25;5065289;28;20529;-81
2022/06/19 01:24:35;;;;;;;10.10;5.00;;;;;;;24.27;49.41;157611.13;5051016;28;20472;-81
2022/06/19 01:27:08;;;;;;;7.70;4.00;;;;;;;24.25;49.26;157604.59;5047300;28;20791;-81
2022/06/19 01:29:35;;;;;;;11.40;5.03;;;;;;;24.23;48.93;157600.66;5049544;28;20492;-81
2022/06/19 01:32:04;;;;;;;8.83;4.10;;;;;;;24.22;48.64;157599.31;5048433;28;20435;-81
2022/06/19 01:34:35;;;;;;;7.77;4.80;;;;;;;24.22;48.38;157599.31;5050472;28;20443;-81
2022/06/19 01:37:06;;;;;;;10.73;4.50;;;;;;;24.20;48.65;157594.09;5048163;28;20454;-81
2022/06/19 01:39:37;;;;;;;9.17;3.70;;;;;;;24.18;48.52;157587.56;5051439;28;20520;-81
2022/06/19 01:42:07;;;;;;;10.90;5.43;;;;;;;24.18;47.90;157587.56;5053538;28;20434;-81
2022/06/19 01:44:35;;;;;;;7.87;4.43;;;;;;;24.18;47.94;157588.91;5070447;28;20814;-81
2022/06/19 01:47:02;;;;;;;11.10;5.00;;;;;;;24.17;47.86;157585.00;5052834;28;20451;-81
2022/06/19 01:49:30;;;;;;;8.90;4.37;;;;;;;24.19;47.75;157590.22;5047512;28;20534;-82
2022/06/19 01:51:57;;;;;;;8.90;4.50;;;;;;;24.17;47.99;157585.00;5050392;28;20450;-81
2022/06/19 01:54:26;;;;;;;7.33;4.13;;;;;;;24.17;47.82;157585.00;5050206;28;20490;-81
2022/06/19 01:56:54;;;;;;;9.07;4.13;;;;;;;24.15;47.59;157581.03;5049047;28;20546;-81
2022/06/19 01:59:23;;;;;;;12.10;4.10;;;;;;;24.18;47.94;157587.56;5048033;28;20508;-82
2022/06/19 02:01:53;;;;;;;9.47;4.70;;;;;;;24.17;47.91;157585.00;5052061;28;20449;-81
2022/06/19 02:04:20;;;;;;;10.83;5.13;;;;;;;24.15;48.11;157581.03;5052403;28;20508;-81
2022/06/19 02:06:49;;;;;;;8.37;4.20;;;;;;;24.13;48.08;157575.81;5051005;28;21031;-82
2022/06/19 02:09:18;;;;;;;8.57;4.67;;;;;;;24.11;48.30;157570.59;5051838;28;20438;-82
2022/06/19 02:11:45;;;;;;;9.70;4.67;;;;;;;24.05;48.51;157553.53;5054100;28;20812;-81
2022/06/19 02:14:13;;;;;;;9.17;4.73;;;;;;;24.04;48.31;157550.94;5036604;28;20963;-82
2022/06/19 02:16:44;;;;;;;7.60;4.27;;;;;;;24.02;48.46;157547.00;5054522;28;20789;-82
2022/06/19 02:19:11;;;;;;;6.50;4.30;;;;;;;24.00;48.82;157541.78;5036005;28;20489;-82
2022/06/19 02:21:40;;;;;;;9.40;4.27;;;;;;;23.96;48.89;157531.28;5055053;28;20541;-81
2022/06/19 02:24:09;;;;;;;10.60;5.27;;;;;;;23.96;48.89;157531.28;5051465;28;20467;-82
2022/06/19 02:26:37;;;;;;;6.70;4.60;;;;;;;23.93;48.69;157523.47;5053344;28;20578;-81
2022/06/19 02:29:09;;;;;;;12.20;4.77;;;;;;;23.89;49.04;157511.69;5053401;28;20486;-81
2022/06/19 02:31:36;;;;;;;6.17;4.33;;;;;;;23.88;48.91;157509.09;5053136;28;20438;-81
2022/06/19 02:34:08;;;;;;;8.50;4.50;;;;;;;23.85;49.21;157502.56;5049794;28;20454;-80
2022/06/19 02:36:40;;;;;;;11.23;5.30;;;;;;;23.83;49.11;157497.28;5050735;28;20944;-82
2022/06/19 02:39:20;;;;;;;7.40;4.40;;;;;;;23.78;49.41;157484.22;5048707;28;20521;-81
2022/06/19 02:41:54;;;;;;;6.47;4.27;;;;;;;23.73;49.31;157471.16;5042953;28;20529;-81
2022/06/19 02:44:21;;;;;;;6.53;5.17;;;;;;;23.71;49.40;157465.94;5051468;28;20467;-81
2022/06/19 02:46:50;;;;;;;8.03;4.50;;;;;;;23.73;49.20;157469.84;5053162;28;20570;-81
2022/06/19 02:49:18;;;;;;;9.67;4.60;;;;;;;23.69;49.07;157460.72;5054758;28;20528;-82
2022/06/19 02:51:45;;;;;;;8.23;4.47;;;;;;;23.67;49.64;157454.19;5051097;28;20508;-82
2022/06/19 02:57:11;;;;;;;6.80;4.03;;;;;;;23.59;50.05;157434.53;5013411;28;20479;-78
2022/06/19 02:59:38;;;;;;;11.37;4.50;;;;;;;23.55;49.66;157425.41;5028334;28;20540;-79
2022/06/19 03:02:05;;;;;;;8.93;5.13;;;;;;;23.59;49.82;157434.53;5026954;28;20457;-79
2022/06/19 03:04:36;;;;;;;12.87;4.73;;;;;;;23.53;49.58;157420.22;5029002;28;20498;-78
2022/06/19 03:07:03;;;;;;;11.97;4.77;;;;;;;23.48;49.87;157407.09;5027946;28;20456;-78
2022/06/19 03:09:30;;;;;;;7.30;4.40;;;;;;;23.47;49.86;157403.19;5012929;28;20531;-79
2022/06/19 03:11:56;;;;;;;7.70;4.90;;;;;;;23.39;50.09;157382.28;5013440;28;20535;-78
2022/06/19 03:14:24;;;;;;;11.00;4.87;;;;;;;23.39;49.93;157382.28;4996208;28;20540;-79
2022/06/19 03:16:51;;;;;;;6.93;4.20;;;;;;;23.38;50.18;157379.63;5013596;28;20409;-79
2022/06/19 03:19:19;;;;;;;9.30;5.37;;;;;;;23.37;50.23;157377.06;5011902;28;20445;-78
2022/06/19 03:21:49;;;;;;;6.80;4.40;;;;;;;23.35;50.36;157371.78;5029515;28;20475;-78
2022/06/19 03:24:16;;;;;;;9.37;5.27;;;;;;;23.30;51.00;157358.72;5012913;28;20449;-78
2022/06/19 03:26:42;;;;;;;12.37;5.03;;;;;;;23.30;50.89;157358.72;5012177;28;21065;-78
2022/06/19 03:29:10;;;;;;;7.17;4.50;;;;;;;23.30;50.50;157358.72;5025032;28;20454;-78
2022/06/19 03:31:37;;;;;;;12.27;4.70;;;;;;;23.28;51.37;157353.47;5012285;28;20527;-78
2022/06/19 03:34:04;;;;;;;7.33;4.53;;;;;;;23.26;51.25;157349.56;5026777;28;20463;-78
2022/06/19 03:36:31;;;;;;;9.33;4.87;;;;;;;23.27;51.31;157350.88;5029144;28;20449;-78
2022/06/19 03:38:59;;;;;;;9.80;4.20;;;;;;;23.27;51.49;157350.88;5013372;28;20798;-77
2022/06/19 03:41:29;;;;;;;6.63;4.40;;;;;;;23.27;51.28;157350.88;5022609;28;20549;-78
2022/06/19 03:43:55;;;;;;;8.20;4.83;;;;;;;23.28;51.50;157353.47;4999285;28;20567;-78
2022/06/19 03:46:22;;;;;;;6.80;4.90;;;;;;;23.31;51.32;157361.31;5009699;28;20475;-78
2022/06/19 03:48:51;;;;;;;8.67;4.57;;;;;;;23.30;51.16;157358.72;5009854;28;20856;-78
2022/06/19 03:51:22;;;;;;;8.80;4.73;;;;;;;23.27;51.52;157350.88;5013472;28;20433;-78
2022/06/19 03:53:50;;;;;;;8.90;5.47;;;;;;;23.27;51.95;157350.88;5012157;28;20472;-78
2022/06/19 03:56:20;;;;;;;8.57;4.97;;;;;;;23.23;51.80;157340.41;5010233;28;20445;-78
2022/06/19 03:58:47;;;;;;;9.20;5.30;;;;;;;23.25;52.32;157345.63;5011850;28;20560;-78
2022/06/19 04:01:15;;;;;;;15.67;4.90;;;;;;;23.24;52.03;157344.34;5013186;28;20485;-78
2022/06/19 04:03:45;;;;;;;9.20;4.70;;;;;;;23.26;52.15;157348.25;5013500;28;20547;-77
2022/06/19 04:06:13;;;;;;;11.00;6.20;;;;;;;23.31;52.11;157361.31;5011536;28;20468;-77
2022/06/19 04:08:41;;;;;;;11.20;5.03;;;;;;;23.34;51.96;157369.16;5010028;28;20448;-78
2022/06/19 04:11:08;;;;;;;7.80;4.60;;;;;;;23.44;51.76;157395.34;5012887;28;20443;-77
2022/06/19 04:13:36;;;;;;;5.90;4.13;;;;;;;23.54;51.71;157422.78;5013629;28;20831;-77
2022/06/19 04:16:07;;;;;;;8.13;4.50;;;;;;;23.69;51.53;157460.72;5010440;28;21003;-78
2022/06/19 04:18:34;;;;;;;8.03;4.80;;;;;;;23.80;51.26;157489.44;5006816;28;20448;-78
2022/06/19 04:21:03;;;;;;;10.60;4.97;;;;;;;23.87;50.99;157507.78;5028257;28;20441;-78
2022/06/19 04:23:29;;;;;;;18.63;5.47;;;;;;;24.02;50.58;157545.69;5027685;28;20479;-78
2022/06/19 04:25:56;;;;;;;13.53;5.53;;;;;;;24.20;50.37;157594.09;5006590;28;20543;-77
2022/06/19 04:28:24;;;;;;;7.47;5.03;;;;;;;24.33;50.20;157626.78;5011031;28;20799;-78
2022/06/19 04:30:53;;;;;;;10.00;4.40;;;;;;;24.47;50.34;157662.13;5027485;28;20524;-77
2022/06/19 04:33:21;;;;;;;11.00;5.90;;;;;;;24.64;49.85;157706.63;5027288;28;20461;-78
2022/06/19 04:35:49;;;;;;;10.47;4.80;;;;;;;24.70;49.83;157722.31;5010091;28;20726;-78
2022/06/19 04:38:16;;;;;;;13.47;5.70;;;;;;;24.85;49.49;157761.59;5012482;28;20451;-78
2022/06/19 04:40:42;;;;;;;8.57;5.27;;;;;;;24.91;49.17;157777.31;5012138;28;20909;-77
2022/06/19 04:43:10;;;;;;;12.17;4.90;;;;;;;25.14;48.88;157837.50;5027289;28;20457;-78
2022/06/19 04:45:38;;;;;;;8.77;4.60;;;;;;;25.28;48.59;157874.09;5026589;28;20508;-78
2022/06/19 04:48:06;;;;;;;10.03;5.57;;;;;;;25.51;48.02;157931.75;5009822;28;20463;-77
2022/06/19 04:50:33;;;;;;;14.23;5.90;;;;;;;25.59;47.87;157954.03;5027678;28;20977;-77
2022/06/19 04:53:00;;;;;;;11.93;4.70;;;;;;;25.71;47.91;157984.09;5010365;28;20496;-78
2022/06/19 04:55:27;;;;;;;9.13;4.63;;;;;;;25.85;47.26;158020.78;5007725;28;20492;-77
2022/06/19 04:57:53;;;;;;;14.60;6.13;;;;;;;25.97;46.86;158053.47;5026964;28;21476;-78
2022/06/19 05:00:21;;;;;;;9.20;5.13;;;;;;;26.17;47.34;158104.63;5011059;28;20531;-77
2022/06/19 05:02:49;;;;;;;9.90;4.90;;;;;;;26.24;46.87;158121.66;5011301;28;20460;-77
2022/06/19 05:05:19;;;;;;;9.23;5.20;;;;;;;26.30;46.90;158137.34;5010080;28;20802;-81
2022/06/19 05:07:49;;;;;;;14.07;5.43;;;;;;;26.40;46.48;158163.53;5012208;28;20531;-81
2022/06/19 05:10:20;;;;;;;8.40;5.03;;;;;;;26.56;46.24;158206.75;5009023;28;20544;-81
2022/06/19 05:12:47;;;;;;;9.50;4.87;;;;;;;26.68;46.07;158235.59;4998558;28;20875;-81
2022/06/19 05:15:14;;;;;;;11.67;5.20;;;;;;;26.77;45.77;158260.50;5010856;28;20495;-81
2022/06/19 05:17:41;;;;;;;8.50;4.60;;;;;;;26.91;45.66;158295.88;5011426;28;20528;-81
2022/06/19 05:20:08;;;;;;;9.63;5.50;;;;;;;27.01;45.72;158322.06;5012407;28;20451;-81
2022/06/19 05:22:39;;;;;;;8.10;4.63;;;;;;;27.10;45.63;158345.69;5026059;28;20843;-81
2022/06/19 05:25:08;;;;;;;19.10;5.80;;;;;;;27.27;44.67;158388.94;5009407;28;20600;-81
2022/06/19 05:27:36;;;;;;;10.33;5.00;;;;;;;27.40;44.44;158423.03;5000957;28;20473;-81
2022/06/19 05:30:04;;;;;;;10.03;5.70;;;;;;;27.55;44.59;158463.66;4991021;28;20529;-81
2022/06/19 05:32:31;;;;;;;12.17;5.20;;;;;;;27.66;44.43;158492.50;5001854;28;20511;-81
2022/06/19 05:34:57;;;;;;;11.57;5.13;;;;;;;27.69;44.61;158499.06;5019930;28;20443;-81
2022/06/19 05:37:24;;;;;;;6.80;5.00;;;;;;;27.86;44.02;158542.28;5017762;28;20471;-81
2022/06/19 05:39:53;;;;;;;12.57;5.40;;;;;;;28.05;43.89;158592.16;5022994;28;20452;-82
2022/06/19 05:42:19;;;;;;;7.97;4.73;;;;;;;28.31;43.42;158661.63;5025709;28;20441;-81
2022/06/19 05:44:46;;;;;;;8.73;5.10;;;;;;;28.54;43.22;158720.63;5023796;28;20445;-81
2022/06/19 05:47:13;;;;;;;13.27;5.30;;;;;;;28.67;43.00;158754.81;5024808;28;20452;-81
2022/06/19 05:49:40;;;;;;;14.33;5.70;;;;;;;28.84;42.69;158799.38;5024693;28;20451;-81
2022/06/19 05:52:15;;;;;;;10.23;4.87;;;;;;;29.04;42.52;158849.25;5007937;28;20445;-81
2022/06/19 05:54:42;;;;;;;15.10;5.50;;;;;;;29.31;42.23;158920.16;5008999;28;20502;-81
2022/06/19 05:57:11;;;;;;;12.97;5.00;;;;;;;29.51;41.78;158972.59;5007746;28;20499;-81
2022/06/19 05:59:37;;;;;;;14.47;5.33;;;;;;;29.73;41.53;159030.38;5008577;28;20798;-80
2022/06/19 06:02:05;;;;;;;7.47;4.83;;;;;;;29.77;41.47;159040.84;5001195;28;20449;-80
2022/06/19 06:04:32;;;;;;;11.50;5.10;;;;;;;29.88;41.14;159069.78;5008932;28;20583;-81
2022/06/19 06:06:58;;;;;;;11.50;6.27;;;;;;;29.79;41.28;159046.13;5025814;28;20468;-81
2022/06/19 06:09:25;;;;;;;7.60;4.87;;;;;;;29.96;40.85;159089.47;5009841;28;20826;-81
2022/06/19 06:11:52;;;;;;;9.40;5.70;;;;;;;30.18;40.65;159147.22;5008490;28;20951;-81
2022/06/19 06:14:21;;;;;;;9.57;4.70;;;;;;;30.35;40.97;159190.50;5011045;28;20454;-81
2022/06/19 06:16:47;;;;;;;12.13;6.00;;;;;;;30.48;40.89;159224.69;5009837;28;20781;-81
2022/06/19 06:19:14;;;;;;;12.23;5.43;;;;;;;30.63;40.75;159264.13;5008615;28;20548;-81
2022/06/19 06:21:42;;;;;;;9.90;6.23;;;;;;;30.65;40.57;159269.34;5026298;28;20694;-81
2022/06/19 06:24:10;;;;;;;13.07;5.50;;;;;;;30.82;40.36;159313.97;4994099;28;20445;-78
2022/06/19 06:26:36;;;;;;;12.13;5.33;;;;;;;31.05;40.10;159374.47;5021538;28;20476;-78
2022/06/19 06:29:03;;;;;;;11.97;5.50;;;;;;;31.11;40.38;159390.19;5023179;28;20531;-78
2022/06/19 06:31:31;;;;;;;10.67;5.60;;;;;;;31.19;40.47;159411.22;5009719;28;20539;-78
2022/06/19 06:33:58;;;;;;;12.73;5.33;;;;;;;31.52;39.94;159495.34;5002043;28;20472;-78
2022/06/19 06:36:25;;;;;;;7.93;4.60;;;;;;;31.62;40.07;159521.59;5023528;28;20438;-78
2022/06/19 06:38:51;;;;;;;10.80;5.83;;;;;;;31.65;39.95;159530.81;5021485;28;20516;-78
2022/06/19 06:41:18;;;;;;;7.97;5.47;;;;;;;31.81;39.46;159571.53;4995113;28;20885;-78
2022/06/19 06:43:46;;;;;;;17.27;6.47;;;;;;;31.84;39.48;159579.44;5015756;28;20441;-78
2022/06/19 06:46:15;;;;;;;13.60;5.63;;;;;;;31.99;39.80;159618.84;5025847;28;20982;-78
2022/06/19 06:48:43;;;;;;;12.33;6.40;;;;;;;32.23;39.29;159681.97;5026759;28;20467;-78
2022/06/19 06:51:10;;;;;;;11.07;5.50;;;;;;;32.28;39.17;159695.13;5013545;28;20460;-78
2022/06/19 06:53:37;;;;;;;10.13;6.23;;;;;;;32.43;38.73;159734.53;5014683;28;20480;-78
2022/06/19 06:56:05;;;;;;;13.50;5.40;;;;;;;32.41;38.45;159729.28;5029920;28;20444;-78
2022/06/19 06:58:32;;;;;;;10.73;5.70;;;;;;;32.56;39.16;159766.16;5012312;28;20484;-78
2022/06/19 07:01:09;;;;;;;9.90;5.67;;;;;;;32.59;39.17;159774.06;5013164;28;20448;-76
2022/06/19 07:03:36;;;;;;;11.30;5.90;;;;;;;32.28;39.01;159693.78;5029220;28;20456;-76
2022/06/19 07:06:04;;;;;;;10.50;5.90;;;;;;;31.89;40.13;159592.56;5028566;28;20966;-76
2022/06/19 07:08:31;;;;;;;11.10;6.20;;;;;;;31.63;40.60;159524.25;5011873;28;20935;-76
2022/06/19 07:10:58;;;;;;;9.80;5.90;;;;;;;31.37;42.06;159455.91;5027675;28;20460;-76
2022/06/19 07:13:25;;;;;;;11.90;6.40;;;;;;;31.11;41.40;159388.91;5014263;28;20507;-76
2022/06/19 07:15:52;;;;;;;12.83;5.90;;;;;;;30.80;43.44;159308.72;5029106;28;20564;-76
2022/06/19 07:18:20;;;;;;;11.03;5.70;;;;;;;30.73;43.20;159290.38;5012050;28;20449;-75
2022/06/19 07:20:47;;;;;;;14.57;6.40;;;;;;;30.63;43.31;159264.13;4994351;28;20492;-75
2022/06/19 07:23:15;;;;;;;13.10;5.73;;;;;;;30.56;44.37;159247.03;5012995;28;20576;-76
2022/06/19 07:25:42;;;;;;;8.53;6.00;;;;;;;30.89;43.61;159332.38;5014619;28;20472;-76
2022/06/19 07:28:10;;;;;;;10.00;5.90;;;;;;;31.39;41.87;159462.47;5011541;28;20476;-76
2022/06/19 07:30:36;;;;;;;8.00;6.13;;;;;;;31.73;41.61;159551.84;5011673;28;20493;-76
2022/06/19 07:33:03;;;;;;;13.10;6.30;;;;;;;32.03;41.12;159628.09;5013782;28;20507;-75
2022/06/19 07:35:30;;;;;;;11.30;6.10;;;;;;;32.42;40.17;159731.94;5012327;28;20448;-76
2022/06/19 07:37:57;;;;;;;10.17;6.17;;;;;;;32.69;39.30;159800.31;5013020;28;20449;-76
2022/06/19 07:40:26;;;;;;;15.10;7.37;;;;;;;32.84;39.19;159839.75;5009942;28;20923;-75
2022/06/19 07:42:53;;;;;;;13.20;6.10;;;;;;;32.99;38.32;159879.22;5028445;28;20487;-76
2022/06/19 07:45:20;;;;;;;11.53;7.10;;;;;;;33.22;38.53;159939.75;5011793;28;20464;-76
2022/06/19 07:50:30;;;;;;;13.37;6.80;;;;;;;33.68;38.28;160059.44;5027924;28;20470;-76
2022/06/19 07:52:57;;;;;;;9.87;7.10;;;;;;;33.96;37.47;160133.13;5013519;28;20531;-76
2022/06/19 07:55:27;;;;;;;11.67;6.50;;;;;;;33.98;37.86;160137.06;5012147;28;20456;-76
2022/06/19 07:57:55;;;;;;;17.37;7.17;;;;;;;34.16;38.10;160185.78;5011602;28;21081;-76
2022/06/19 08:00:24;;;;;;;10.30;6.63;;;;;;;34.30;37.40;160221.31;5019039;28;20464;-76
2022/06/19 08:02:52;;;;;;;13.13;7.90;;;;;;;34.45;37.54;160259.47;5012212;28;20904;-76
2022/06/19 08:05:20;;;;;;;8.83;7.57;;;;;;;34.27;38.04;160213.44;5004682;28;20498;-76
2022/06/19 08:07:47;;;;;;;9.87;7.10;;;;;;;34.48;37.76;160268.69;4995500;28;20704;-76
2022/06/19 08:10:17;;;;;;;15.77;7.53;;;;;;;34.66;37.31;160316.09;5028073;28;20452;-76
2022/06/19 08:12:46;;;;;;;9.20;7.20;;;;;;;34.79;37.67;160349.03;5007078;28;20506;-76
2022/06/19 08:15:13;;;;;;;12.90;8.33;;;;;;;35.05;37.77;160416.16;5012520;28;20444;-76
2022/06/19 08:17:40;;;;;;;12.90;7.37;;;;;;;35.35;37.81;160495.16;5026151;28;20484;-76
2022/06/19 08:20:08;;;;;;;10.20;7.47;;;;;;;35.44;36.65;160518.88;5010389;28;20452;-76
2022/06/19 08:22:34;;;;;;;12.93;8.20;;;;;;;35.53;37.12;160541.28;5009231;28;20448;-76
2022/06/19 08:25:01;;;;;;;15.57;8.03;;;;;;;35.87;36.10;160632.19;5027791;28;20471;-76
2022/06/19 08:27:28;;;;;;;11.47;8.00;;;;;;;35.76;36.83;160603.22;5012997;28;20511;-76
2022/06/19 08:29:56;;;;;;;15.70;7.40;;;;;;;36.12;36.73;160696.75;5027210;28;20478;-76
2022/06/19 08:32:25;;;;;;;10.43;8.87;;;;;;;36.15;36.77;160704.66;5011342;28;20436;-76
2022/06/19 08:34:51;;;;;;;16.10;9.43;;;;;;;36.32;36.48;160748.13;5008490;28;20547;-76
2022/06/19 08:37:18;;;;;;;11.73;8.87;;;;;;;36.35;36.75;160757.38;5014829;28;20453;-76
2022/06/19 08:39:46;;;;;;;12.97;9.00;;;;;;;36.68;35.39;160843.00;5011617;28;20487;-76
2022/06/19 08:42:25;;;;;;;12.93;10.27;;;;;;;37.00;34.65;160927.41;5027961;28;20531;-76
2022/06/19 08:45:21;;;;;;;13.70;11.80;;;;;;;37.29;32.95;161001.16;5011522;28;20667;-76
2022/06/19 08:48:12;;;;;;;13.93;12.63;;;;;;;37.52;31.81;161063.16;5008146;28;20464;-76
2022/06/19 08:50:43;;;;;;;18.17;12.10;;;;;;;37.61;30.52;161086.91;4967294;28;20549;-77
2022/06/19 08:53:22;;;;;;;14.00;12.17;;;;;;;37.65;29.29;161097.44;5021501;28;21025;-76
2022/06/19 08:55:53;;;;;;;12.87;11.67;;;;;;;37.89;29.10;161158.16;5027424;28;20212;-77
2022/06/19 08:58:29;;;;;;;15.50;12.63;;;;;;;38.12;29.19;161220.09;5025483;28;20237;-76
2022/06/19 09:01:01;;;;;;;15.23;12.50;;;;;;;38.15;30.26;161226.69;5011961;28;20214;-77
2022/06/19 09:06:21;;;;;;;12.60;11.40;;;;;;;38.67;28.32;161362.53;5015821;28;20207;-77
2022/06/19 09:09:13;;;;;;;14.20;12.43;;;;;;;38.68;28.11;161365.19;5010244;28;20273;-77
2022/06/19 09:11:57;;;;;;;15.20;12.87;;;;;;;38.90;27.79;161423.25;5023425;28;20211;-77
2022/06/19 09:14:34;;;;;;;13.93;12.47;;;;;;;38.84;27.42;161407.47;5008708;28;20210;-77
2022/06/19 09:17:09;;;;;;;14.37;12.57;;;;;;;38.76;26.52;161386.34;5021863;28;20269;-77
2022/06/19 09:19:51;;;;;;;14.17;12.70;;;;;;;38.93;26.44;161431.16;5009515;28;20549;-77
2022/06/19 09:22:37;;;;;;;15.73;14.17;;;;;;;38.85;26.53;161411.41;4991251;28;20204;-77
2022/06/19 09:25:13;;;;;;;14.90;12.45;;;;;;;38.79;26.43;161394.28;4998753;28;20207;-77
2022/06/19 09:27:44;;;;;;;14.32;12.25;;;;;;;38.78;26.58;161391.63;5010761;28;20222;-77
2022/06/19 09:30:15;;;;;;;13.05;11.70;;;;;;;38.75;25.83;161385.03;5010182;28;20898;-77
2022/06/19 09:32:46;;;;;;;12.82;11.10;;;;;;;38.53;25.52;161326.94;5017767;28;20211;-77
2022/06/19 09:35:17;;;;;;;12.00;10.88;;;;;;;38.56;25.08;161333.53;5027552;28;20223;-76
2022/06/19 09:37:46;;;;;;;15.55;11.32;;;;;;;38.65;25.48;161358.63;5007950;28;20287;-76
2022/06/19 09:40:18;;;;;;;13.85;11.93;;;;;;;38.92;25.08;161429.84;5010640;28;20292;-77
2022/06/19 09:42:47;;;;;;;14.77;11.38;;;;;;;39.05;24.81;161461.53;5007638;28;20207;-77
2022/06/19 09:45:18;;;;;;;13.15;11.82;;;;;;;39.01;24.60;161452.28;5009760;28;20213;-76
2022/06/19 09:47:53;;;;;;;11.95;10.27;;;;;;;39.21;23.32;161505.13;5009687;28;20221;-77
2022/06/19 09:50:23;;;;;;;13.65;8.98;;;;;;;39.19;23.21;161499.81;5008253;28;20259;-76
2022/06/19 09:52:54;;;;;;;11.85;9.43;;;;;;;38.99;23.93;161447.00;5010771;28;20626;-77
2022/06/19 09:55:28;;;;;;;13.65;9.32;;;;;;;38.96;24.24;161439.09;5003611;28;20678;-77
2022/06/19 09:57:57;;;;;;;10.88;9.30;;;;;;;38.88;24.41;161419.31;4989048;28;20242;-76
2022/06/19 10:00:26;;;;;;;11.05;9.98;;;;;;;38.94;25.21;161435.16;4999519;28;20211;-76
2022/06/19 10:02:58;;;;;;;12.02;10.60;;;;;;;39.01;24.79;161452.28;5006809;28;20327;-77
2022/06/19 10:05:32;;;;;;;12.02;10.52;;;;;;;38.88;24.77;161418.00;5015759;28;20224;-77
2022/06/19 10:08:03;;;;;;;12.85;11.10;;;;;;;38.69;25.60;161369.13;5007080;28;20203;-76
2022/06/19 10:10:35;;;;;;;14.77;11.38;;;;;;;38.78;24.50;161391.63;5021641;28;20209;-76
2022/06/19 10:13:04;;;;;;;16.15;10.77;;;;;;;38.93;24.33;161431.16;5027395;28;20220;-76
2022/06/19 10:15:33;;;;;;;16.48;11.40;;;;;;;38.57;24.96;161336.19;5008802;28;20258;-76
2022/06/19 10:18:05;;;;;;;12.63;11.23;;;;;;;38.50;25.43;161319.00;4997766;28;20212;-77
2022/06/19 10:20:54;;;;;;;13.98;10.30;;;;;;;38.63;24.92;161352.03;4989635;28;20205;-77
2022/06/19 10:23:27;;;;;;;13.87;11.90;;;;;;;38.58;25.50;161340.13;5005659;28;20203;-77
2022/06/19 10:26:25;;;;;;;12.30;10.83;;;;;;;38.73;25.02;161379.72;5012155;28;20367;-77
2022/06/19 10:29:31;;;;;;;13.10;11.00;;;;;;;38.69;24.72;161367.81;4969924;28;20269;-77
2022/06/19 10:32:21;;;;;;;13.77;10.50;;;;;;;38.56;24.51;161333.53;5014783;28;20285;-76
2022/06/19 10:34:56;;;;;;;11.80;10.67;;;;;;;38.50;24.04;161319.00;5005742;28;20274;-77
2022/06/19 10:37:31;;;;;;;13.80;10.93;;;;;;;38.50;24.96;161319.00;5019694;28;20229;-76
2022/06/19 10:40:06;;;;;;;18.30;10.97;;;;;;;38.46;25.89;161307.16;5014619;28;20202;-76
2022/06/19 10:42:37;;;;;;;13.53;11.63;;;;;;;38.31;25.37;161270.22;5028061;28;20200;-76
2022/06/19 10:45:21;;;;;;;16.77;10.90;;;;;;;38.45;25.23;161305.84;5023742;28;20657;-77
2022/06/19 10:48:12;;;;;;;13.90;10.67;;;;;;;38.33;25.17;161274.22;5030425;28;20321;-76
2022/06/19 10:50:46;;;;;;;13.37;11.63;;;;;;;38.34;25.21;161278.13;5011360;28;20233;-76
2022/06/19 10:53:38;;;;;;;11.90;10.57;;;;;;;38.27;25.39;161258.31;5011978;28;20253;-76
2022/06/19 10:56:11;;;;;;;15.83;10.60;;;;;;;38.31;26.07;161270.22;5014312;28;20295;-76
2022/06/19 10:58:38;;;;;;;13.50;10.20;;;;;;;38.22;24.94;161246.47;5013620;28;20261;-76
2022/06/19 11:01:06;;;;;;;12.20;10.37;;;;;;;38.13;24.33;161221.38;5013091;28;20332;-76
2022/06/19 11:06:24;;;;;;;14.77;9.73;;;;;;;38.09;24.21;161212.19;4994452;28;20444;-76
2022/06/19 11:08:57;;;;;;;15.33;8.97;;;;;;;38.11;24.09;161216.13;5018202;28;20234;-76
2022/06/19 11:11:25;;;;;;;9.80;8.80;;;;;;;38.11;25.08;161216.13;5010329;28;20297;-76
2022/06/19 11:14:09;;;;;;;12.60;7.90;;;;;;;38.06;24.62;161204.28;5028790;28;21010;-76
2022/06/19 11:16:53;;;;;;;11.50;9.00;;;;;;;37.88;24.22;161156.81;5028500;28;20526;-76
2022/06/19 11:19:38;;;;;;;11.07;9.13;;;;;;;37.87;24.30;161154.16;5008649;28;20510;-76
2022/06/19 11:22:12;;;;;;;12.50;8.93;;;;;;;37.72;23.78;161115.91;5029931;28;21016;-76
2022/06/19 11:24:41;;;;;;;14.00;8.67;;;;;;;37.53;24.51;161064.47;5026913;28;20451;-76
2022/06/19 11:27:15;;;;;;;10.93;8.33;;;;;;;37.55;24.41;161069.75;5004719;28;20933;-77
2022/06/19 11:29:44;;;;;;;10.20;8.93;;;;;;;37.58;23.57;161079.00;5027729;28;20456;-76
2022/06/19 11:32:13;;;;;;;13.93;8.50;;;;;;;37.60;24.47;161082.91;5028653;28;20494;-76
2022/06/19 11:34:44;;;;;;;15.10;8.87;;;;;;;37.43;24.72;161039.47;5027368;28;20514;-76
2022/06/19 11:37:16;;;;;;;11.27;8.60;;;;;;;37.44;23.60;161042.06;5026274;28;20507;-76
2022/06/19 11:39:45;;;;;;;12.77;8.60;;;;;;;37.54;24.38;161067.13;5029154;28;20893;-76
2022/06/19 11:42:28;;;;;;;10.10;7.93;;;;;;;37.43;25.16;161038.13;5010651;28;20538;-76